createdAt,value
2023-05-06T00:00:45.253Z,4.20
2023-05-06T00:03:47.209Z,4.10
2023-05-06T00:06:49.180Z,3.90
2023-05-06T00:09:50.796Z,3.60
2023-05-06T00:12:52.511Z,3.78
2023-05-06T00:15:54.212Z,3.75
2023-05-06T00:18:55.978Z,4.28
2023-05-06T00:21:57.568Z,4.50
2023-05-06T00:24:59.216Z,4.10
2023-05-06T00:28:00.936Z,4.20
2023-05-06T00:31:02.643Z,3.90
2023-05-06T00:34:04.227Z,3.70
2023-05-06T00:37:05.976Z,4.10
2023-05-06T00:40:08.433Z,3.90
2023-05-06T00:43:10.123Z,4.25
2023-05-06T00:46:12.854Z,4.30
2023-05-06T00:49:14.526Z,4.07
2023-05-06T00:52:16.153Z,4.40
2023-05-06T00:55:17.857Z,3.90
2023-05-06T00:58:20.238Z,4.18
2023-05-06T01:01:22.954Z,3.97
2023-05-06T01:04:25.100Z,3.90
2023-05-06T01:11:00.298Z,4.13
2023-05-06T01:14:17.120Z,4.00
2023-05-06T01:17:18.970Z,3.95
2023-05-06T01:20:21.341Z,5.05
2023-05-06T01:23:22.957Z,4.20
2023-05-06T01:26:25.006Z,4.88
2023-05-06T01:29:26.557Z,4.05
2023-05-06T01:32:41.076Z,4.03
2023-05-06T01:35:57.930Z,3.90
2023-05-06T01:39:07.763Z,3.70
2023-05-06T01:42:09.672Z,4.10
2023-05-06T01:45:11.505Z,4.22
2023-05-06T01:48:13.309Z,4.30
2023-05-06T01:51:14.893Z,4.50
2023-05-06T01:54:16.912Z,4.43
2023-05-06T01:57:18.546Z,4.20
2023-05-06T02:00:20.272Z,4.38
2023-05-06T02:03:21.967Z,4.28
2023-05-06T02:06:23.644Z,4.65
2023-05-06T02:09:25.260Z,4.40
2023-05-06T02:12:26.862Z,4.07
2023-05-06T02:15:28.403Z,4.20
2023-05-06T02:18:30.009Z,4.30
2023-05-06T02:21:32.100Z,4.13
2023-05-06T02:24:33.777Z,4.40
2023-05-06T02:27:35.494Z,4.15
2023-05-06T02:30:37.140Z,3.65
2023-05-06T02:33:38.718Z,3.63
2023-05-06T02:36:40.299Z,3.45
2023-05-06T02:39:41.875Z,3.60
2023-05-06T02:42:43.508Z,4.03
2023-05-06T02:45:45.381Z,3.55
2023-05-06T02:48:47.004Z,3.72
2023-05-06T02:51:48.585Z,3.90
2023-05-06T02:54:50.248Z,3.95
2023-05-06T02:57:51.828Z,4.05
2023-05-06T03:00:53.494Z,3.85
2023-05-06T03:03:55.085Z,4.22
2023-05-06T03:06:57.417Z,4.28
2023-05-06T03:09:59.080Z,3.85
2023-05-06T03:13:00.742Z,3.97
2023-05-06T03:16:02.452Z,4.40
2023-05-06T03:19:04.049Z,4.30
2023-05-06T03:22:05.677Z,4.80
2023-05-06T03:25:07.893Z,4.22
2023-05-06T03:28:09.626Z,3.75
2023-05-06T03:31:11.379Z,4.40
2023-05-06T03:34:12.993Z,4.95
2023-05-06T03:37:14.546Z,4.85
2023-05-06T03:40:16.205Z,3.80
2023-05-06T03:43:17.998Z,4.85
2023-05-06T03:46:19.628Z,4.25
2023-05-06T03:49:21.297Z,4.47
2023-05-06T03:52:22.938Z,4.40
2023-05-06T03:55:27.648Z,5.15
2023-05-06T03:58:29.257Z,5.57
2023-05-06T04:01:33.835Z,4.60
2023-05-06T04:04:35.495Z,5.20
2023-05-06T04:07:37.051Z,5.32
2023-05-06T04:10:44.355Z,6.70
2023-05-06T04:13:45.925Z,5.55
2023-05-06T04:16:50.060Z,5.90
2023-05-06T04:19:53.890Z,6.22
2023-05-06T04:22:55.505Z,4.93
2023-05-06T04:25:58.029Z,5.18
2023-05-06T04:28:59.649Z,6.80
2023-05-06T04:32:01.306Z,5.50
2023-05-06T04:35:03.214Z,5.00
2023-05-06T04:38:04.801Z,5.00
2023-05-06T04:41:06.373Z,4.45
2023-05-06T04:44:08.051Z,4.65
2023-05-06T04:47:09.825Z,5.05
2023-05-06T04:50:11.762Z,4.93
2023-05-06T04:53:13.403Z,4.50
2023-05-06T04:56:15.014Z,4.80
2023-05-06T04:59:16.637Z,5.75
2023-05-06T05:02:18.282Z,4.68
2023-05-06T05:05:19.966Z,4.60
2023-05-06T05:08:23.479Z,4.75
2023-05-06T05:11:25.289Z,4.70
2023-05-06T05:14:26.995Z,4.47
2023-05-06T05:17:29.080Z,4.88
2023-05-06T05:23:32.958Z,4.80
2023-05-06T05:29:36.218Z,4.88
2023-05-06T05:32:37.921Z,4.70
2023-05-06T05:35:39.473Z,5.88
2023-05-06T05:38:41.407Z,5.60
2023-05-06T05:41:43.380Z,5.47
2023-05-06T05:44:44.937Z,5.95
2023-05-06T05:47:46.912Z,6.68
2023-05-06T05:50:51.145Z,5.80
2023-05-06T05:53:53.369Z,5.25
2023-05-06T05:56:55.011Z,5.00
2023-05-06T05:59:56.610Z,5.13
2023-05-06T06:02:58.331Z,4.70
2023-05-06T06:05:59.976Z,4.90
2023-05-06T06:09:01.584Z,4.72
2023-05-06T06:12:03.302Z,4.95
2023-05-06T06:15:05.114Z,4.78
2023-05-06T06:18:08.870Z,4.57
2023-05-06T06:21:10.629Z,4.80
2023-05-06T06:24:12.982Z,4.80
2023-05-06T06:27:14.554Z,4.28
2023-05-06T06:30:16.203Z,4.65
2023-05-06T06:33:17.933Z,4.55
2023-05-06T06:36:19.617Z,4.55
2023-05-06T06:39:21.259Z,4.35
2023-05-06T06:42:22.883Z,4.30
2023-05-06T06:45:24.435Z,5.07
2023-05-06T06:48:26.076Z,4.57
2023-05-06T06:51:27.860Z,4.78
2023-05-06T06:54:29.638Z,4.90
2023-05-06T06:57:31.205Z,4.80
2023-05-06T07:00:32.785Z,4.72
2023-05-06T07:03:34.441Z,4.63
2023-05-06T07:06:38.451Z,4.75
2023-05-06T07:09:40.250Z,3.95
2023-05-06T07:12:42.008Z,4.57
2023-05-06T07:15:43.888Z,5.15
2023-05-06T07:18:50.130Z,5.15
2023-05-06T07:21:51.828Z,5.15
2023-05-06T07:24:53.807Z,4.80
2023-05-06T07:30:56.781Z,5.45
2023-05-06T07:33:58.572Z,5.15
2023-05-06T07:37:00.328Z,4.57
2023-05-06T07:40:02.018Z,4.63
2023-05-06T07:43:03.909Z,4.07
2023-05-06T07:49:10.324Z,4.20
2023-05-06T07:52:12.215Z,3.80
2023-05-06T07:58:15.534Z,3.05
2023-05-06T08:01:17.178Z,4.28
2023-05-06T08:04:18.745Z,2.70
2023-05-06T08:07:20.469Z,2.40
2023-05-06T08:10:23.017Z,2.70
2023-05-06T08:13:25.642Z,2.20
2023-05-06T08:16:27.278Z,2.60
2023-05-06T08:19:28.970Z,2.20
2023-05-06T08:22:30.941Z,2.20
2023-05-06T08:25:32.504Z,2.58
2023-05-06T08:28:34.093Z,2.30
2023-05-06T08:31:35.731Z,2.20
2023-05-06T08:37:38.784Z,1.92
2023-05-06T08:43:46.945Z,2.25
2023-05-06T08:46:48.564Z,2.40
2023-05-06T08:49:50.152Z,2.35
2023-05-06T08:52:51.789Z,2.42
2023-05-06T08:55:53.352Z,2.20
2023-05-06T08:58:55.677Z,2.53
2023-05-06T09:01:57.313Z,2.10
2023-05-06T09:08:00.503Z,2.45
2023-05-06T09:14:11.039Z,2.30
2023-05-06T09:17:27.936Z,2.13
2023-05-06T09:20:29.530Z,2.20
2023-05-06T09:26:33.481Z,2.28
2023-05-06T09:29:35.086Z,2.50
2023-05-06T09:35:42.898Z,2.10
2023-05-06T09:38:44.449Z,2.20
2023-05-06T09:44:47.471Z,2.20
2023-05-06T09:47:49.757Z,2.20
2023-05-06T09:50:51.476Z,2.20
2023-05-06T09:56:54.494Z,2.10
2023-05-06T10:02:57.920Z,1.88
2023-05-06T10:06:06.743Z,1.90
2023-05-06T10:09:09.262Z,1.90
2023-05-06T10:12:10.950Z,2.15
2023-05-06T10:15:12.776Z,2.10
2023-05-06T10:18:19.289Z,2.10
2023-05-06T10:21:25.213Z,2.20
2023-05-06T10:24:33.260Z,2.50
2023-05-06T10:27:35.924Z,2.60
2023-05-06T10:30:39.051Z,2.58
2023-05-06T10:33:42.583Z,2.30
2023-05-06T10:36:44.264Z,2.50
2023-05-06T10:39:45.930Z,2.50
2023-05-06T10:42:47.579Z,2.63
2023-05-06T10:46:00.644Z,2.75
2023-05-06T10:49:06.247Z,2.22
2023-05-06T10:52:14.445Z,2.63
2023-05-06T10:55:34.594Z,2.20
2023-05-06T10:58:39.017Z,2.30
2023-05-06T11:01:41.904Z,2.58
2023-05-06T11:04:44.026Z,2.50
2023-05-06T11:07:45.605Z,2.50
2023-05-06T11:10:47.121Z,2.38
2023-05-06T11:13:52.278Z,2.22
2023-05-06T11:16:54.200Z,2.40
2023-05-06T11:20:38.709Z,2.35
2023-05-06T11:23:43.450Z,2.53
2023-05-06T11:26:50.703Z,2.33
2023-05-06T11:29:54.747Z,2.35
2023-05-06T11:33:07.135Z,2.63
2023-05-06T11:36:09.128Z,2.70
2023-05-06T11:39:12.286Z,2.70
2023-05-06T11:42:13.896Z,2.40
2023-05-06T11:45:18.797Z,2.30
2023-05-06T11:48:26.513Z,2.67
2023-05-06T11:51:28.212Z,2.47
2023-05-06T11:54:43.463Z,2.88
2023-05-06T11:57:50.321Z,2.90
2023-05-06T12:00:56.286Z,2.78
2023-05-06T12:03:58.051Z,2.50
2023-05-06T12:07:09.069Z,3.03
2023-05-06T12:10:12.352Z,2.67
2023-05-06T12:13:25.488Z,2.40
2023-05-06T12:16:38.779Z,2.75
2023-05-06T12:20:17.553Z,2.60
2023-05-06T12:23:20.074Z,2.40
2023-05-06T12:26:25.550Z,2.85
2023-05-06T12:29:34.160Z,2.58
2023-05-06T12:32:35.944Z,2.20
2023-05-06T12:35:37.883Z,2.58
2023-05-06T12:38:40.070Z,2.33
2023-05-06T12:41:43.292Z,3.13
2023-05-06T12:44:44.957Z,2.42
2023-05-06T12:48:44.910Z,2.50
2023-05-06T12:52:05.632Z,2.40
2023-05-06T12:55:08.703Z,2.37
2023-05-06T12:58:19.937Z,2.70
2023-05-06T13:01:22.268Z,2.30
2023-05-06T13:04:24.124Z,2.53
2023-05-06T13:07:37.344Z,2.42
2023-05-06T13:10:39.031Z,2.40
2023-05-06T13:13:41.077Z,2.60
2023-05-06T13:16:43.216Z,2.30
2023-05-06T13:19:45.255Z,2.72
2023-05-06T13:22:54.273Z,2.40
2023-05-06T13:26:04.061Z,2.47
2023-05-06T13:29:06.628Z,2.30
2023-05-06T13:32:08.940Z,2.50
2023-05-06T13:35:11.037Z,2.42
2023-05-06T13:38:12.739Z,2.50
2023-05-06T13:41:14.247Z,2.65
2023-05-06T13:44:19.396Z,2.63
2023-05-06T13:47:21.075Z,2.88
2023-05-06T13:50:22.797Z,2.60
2023-05-06T13:53:26.696Z,2.40
2023-05-06T13:56:28.518Z,2.33
2023-05-06T13:59:30.188Z,2.50
2023-05-06T14:02:32.291Z,2.70
2023-05-06T14:06:12.791Z,3.33
2023-05-06T14:09:27.490Z,2.55
2023-05-06T14:12:39.592Z,2.40
2023-05-06T14:28:04.530Z,2.30
2023-05-06T14:39:56.423Z,2.13
2023-05-06T14:43:10.987Z,2.30
2023-05-06T14:46:14.683Z,2.15
2023-05-06T14:49:16.500Z,2.10
2023-05-06T14:52:18.136Z,2.35
2023-05-06T14:58:22.002Z,2.10
2023-05-06T15:04:25.318Z,2.63
2023-05-06T15:07:26.898Z,2.60
2023-05-06T15:13:30.264Z,2.40
2023-05-06T15:16:31.851Z,2.30
2023-05-06T15:22:39.341Z,2.38
2023-05-06T15:25:41.587Z,2.17
2023-05-06T15:28:43.313Z,2.30
2023-05-06T15:34:48.521Z,2.33
2023-05-06T15:37:51.511Z,2.40
2023-05-06T15:40:54.453Z,2.20
2023-05-06T15:44:02.601Z,2.22
2023-05-06T15:47:04.212Z,2.55
2023-05-06T15:53:30.006Z,2.38
2023-05-06T15:56:39.381Z,2.22
2023-05-06T15:59:42.873Z,2.30
2023-05-06T16:05:46.308Z,2.67
2023-05-06T16:08:51.847Z,2.10
2023-05-06T16:11:56.373Z,2.28
2023-05-06T16:34:22.006Z,2.10
2023-05-06T16:46:42.368Z,2.22
2023-05-06T16:54:29.684Z,2.15
2023-05-06T16:57:31.403Z,2.20
2023-05-06T17:12:11.135Z,2.22
2023-05-06T17:15:20.462Z,2.38
2023-05-06T17:22:26.457Z,3.13
2023-05-06T17:26:47.955Z,2.35
2023-05-06T17:30:07.976Z,2.55
2023-05-06T17:35:20.879Z,4.05
2023-05-06T17:50:36.518Z,3.10
2023-05-06T17:58:40.463Z,2.90
2023-05-06T18:02:23.777Z,2.42
2023-05-06T18:05:50.262Z,2.60
2023-05-06T18:09:25.706Z,2.78
2023-05-06T18:13:30.364Z,5.00
2023-05-06T18:16:50.749Z,2.90
2023-05-06T18:46:32.278Z,4.80
2023-05-06T18:59:53.363Z,3.33
2023-05-06T19:12:37.782Z,3.63
2023-05-06T19:36:11.200Z,3.38
2023-05-06T19:44:09.162Z,4.03
2023-05-06T19:48:04.258Z,3.70
2023-05-06T19:51:23.346Z,2.90
2023-05-06T19:54:38.736Z,5.05
2023-05-06T19:57:44.515Z,3.45
2023-05-06T20:00:57.794Z,2.97
2023-05-06T20:04:19.034Z,3.35
2023-05-06T20:07:57.153Z,3.33
2023-05-06T20:11:01.998Z,3.17
2023-05-06T20:14:16.700Z,3.40
2023-05-06T20:17:39.462Z,3.30
2023-05-06T20:21:18.062Z,3.60
2023-05-06T20:26:15.969Z,3.45
2023-05-06T20:35:38.647Z,3.70
2023-05-06T20:38:49.985Z,3.60
2023-05-06T20:42:01.958Z,3.60
2023-05-06T20:45:10.796Z,3.30
2023-05-06T20:48:31.794Z,3.97
2023-05-06T21:08:32.504Z,3.40
2023-05-06T21:11:39.022Z,3.63
2023-05-06T21:14:40.633Z,3.25
2023-05-06T21:17:42.703Z,3.35
2023-05-06T21:20:44.657Z,3.47
2023-05-06T21:23:46.588Z,3.55
2023-05-06T21:29:52.116Z,3.00
2023-05-06T21:32:55.722Z,3.15
2023-05-06T21:35:59.804Z,3.53
2023-05-06T21:39:09.958Z,3.42
2023-05-06T21:42:11.652Z,3.60
2023-05-06T21:45:13.737Z,3.22
2023-05-06T21:51:20.248Z,2.92
2023-05-06T21:54:24.621Z,3.15
2023-05-06T21:57:29.188Z,2.85
2023-05-06T22:00:30.852Z,3.45
2023-05-06T22:03:32.572Z,3.33
2023-05-06T22:06:34.259Z,2.90
2023-05-06T22:09:35.982Z,2.83
2023-05-06T22:12:37.742Z,3.50
2023-05-06T22:15:39.305Z,3.45
2023-05-06T22:18:43.574Z,3.58
2023-05-06T22:21:47.557Z,3.83
2023-05-06T22:24:49.198Z,3.03
2023-05-06T22:27:50.991Z,3.35
2023-05-06T22:30:54.826Z,3.13
2023-05-06T22:33:58.155Z,3.28
2023-05-06T22:37:02.794Z,2.88
2023-05-06T22:40:04.886Z,3.20
2023-05-06T22:46:08.195Z,3.03
2023-05-06T22:49:09.969Z,3.00
2023-05-06T22:52:13.094Z,3.35
2023-05-06T22:55:16.177Z,3.30
2023-05-06T22:58:17.813Z,3.20
2023-05-06T23:01:19.546Z,2.90
2023-05-06T23:04:21.387Z,3.35
2023-05-06T23:07:23.149Z,2.75
2023-05-06T23:10:24.778Z,2.90
2023-05-06T23:13:27.075Z,3.22
2023-05-06T23:16:29.605Z,3.55
2023-05-06T23:19:31.472Z,2.83
2023-05-06T23:22:33.273Z,2.78
2023-05-06T23:25:37.081Z,2.78
2023-05-06T23:28:38.727Z,2.90
2023-05-06T23:31:40.596Z,3.85
2023-05-06T23:34:42.348Z,3.92
2023-05-06T23:37:43.995Z,2.85
2023-05-06T23:40:49.258Z,3.50
2023-05-06T23:43:50.861Z,3.00
2023-05-06T23:46:54.545Z,2.80
2023-05-06T23:49:56.337Z,2.85
2023-05-06T23:52:57.871Z,2.83
2023-05-06T23:55:59.464Z,2.47
2023-05-06T23:59:01.171Z,2.72
